sensor_id;sensor_type;location;lat;lon;timestamp;P1;durP1;ratioP1;P2;durP2;ratioP2
7359;SDS011;3720;48.274;7.796;2022-09-14T00:02:06;3.95;;;2.60;;
7359;SDS011;3720;48.274;7.796;2022-09-14T00:04:39;5.88;;;2.72;;
7359;SDS011;3720;48.274;7.796;2022-09-14T00:07:11;6.47;;;2.83;;
7359;SDS011;3720;48.274;7.796;2022-09-14T00:09:43;6.75;;;2.78;;
7359;SDS011;3720;48.274;7.796;2022-09-14T00:12:15;7.35;;;3.00;;
7359;SDS011;3720;48.274;7.796;2022-09-14T00:14:48;8.93;;;3.63;;
7359;SDS011;3720;48.274;7.796;2022-09-14T00:17:20;21.95;;;4.53;;
7359;SDS011;3720;48.274;7.796;2022-09-14T00:19:51;21.15;;;4.90;;
7359;SDS011;3720;48.274;7.796;2022-09-14T00:22:23;26.00;;;6.32;;
7359;SDS011;3720;48.274;7.796;2022-09-14T00:24:55;19.15;;;5.75;;
7359;SDS011;3720;48.274;7.796;2022-09-14T00:27:27;21.38;;;5.50;;
7359;SDS011;3720;48.274;7.796;2022-09-14T00:30:00;15.48;;;5.97;;
7359;SDS011;3720;48.274;7.796;2022-09-14T00:32:32;15.15;;;5.63;;
7359;SDS011;3720;48.274;7.796;2022-09-14T00:35:04;10.18;;;4.80;;
7359;SDS011;3720;48.274;7.796;2022-09-14T00:37:37;8.93;;;4.43;;
7359;SDS011;3720;48.274;7.796;2022-09-14T00:40:09;5.95;;;4.05;;
7359;SDS011;3720;48.274;7.796;2022-09-14T00:42:42;9.38;;;4.28;;
7359;SDS011;3720;48.274;7.796;2022-09-14T00:45:17;8.77;;;5.18;;
7359;SDS011;3720;48.274;7.796;2022-09-14T00:47:51;9.90;;;4.90;;
7359;SDS011;3720;48.274;7.796;2022-09-14T00:50:25;9.23;;;5.50;;
7359;SDS011;3720;48.274;7.796;2022-09-14T00:52:58;10.20;;;5.07;;
7359;SDS011;3720;48.274;7.796;2022-09-14T00:55:30;9.18;;;5.10;;
7359;SDS011;3720;48.274;7.796;2022-09-14T00:58:03;13.40;;;6.40;;
7359;SDS011;3720;48.274;7.796;2022-09-14T01:00:37;13.25;;;8.85;;
7359;SDS011;3720;48.274;7.796;2022-09-14T01:03:09;13.32;;;6.97;;
7359;SDS011;3720;48.274;7.796;2022-09-14T01:05:45;13.80;;;7.60;;
7359;SDS011;3720;48.274;7.796;2022-09-14T01:08:27;13.65;;;7.20;;
7359;SDS011;3720;48.274;7.796;2022-09-14T01:11:15;10.75;;;7.32;;
7359;SDS011;3720;48.274;7.796;2022-09-14T01:13:58;11.13;;;6.32;;
7359;SDS011;3720;48.274;7.796;2022-09-14T01:16:42;10.95;;;6.50;;
7359;SDS011;3720;48.274;7.796;2022-09-14T01:19:22;13.95;;;7.38;;
7359;SDS011;3720;48.274;7.796;2022-09-14T01:21:56;9.70;;;6.90;;
7359;SDS011;3720;48.274;7.796;2022-09-14T01:24:42;11.23;;;6.28;;
7359;SDS011;3720;48.274;7.796;2022-09-14T01:27:21;9.45;;;6.05;;
7359;SDS011;3720;48.274;7.796;2022-09-14T01:29:58;8.52;;;6.05;;
7359;SDS011;3720;48.274;7.796;2022-09-14T01:32:37;11.25;;;6.20;;
7359;SDS011;3720;48.274;7.796;2022-09-14T01:35:14;9.88;;;6.30;;
7359;SDS011;3720;48.274;7.796;2022-09-14T01:37:53;9.65;;;6.10;;
7359;SDS011;3720;48.274;7.796;2022-09-14T01:40:31;9.18;;;5.90;;
7359;SDS011;3720;48.274;7.796;2022-09-14T01:43:08;6.70;;;5.20;;
7359;SDS011;3720;48.274;7.796;2022-09-14T01:45:45;8.00;;;5.60;;
7359;SDS011;3720;48.274;7.796;2022-09-14T01:48:20;12.50;;;6.35;;
7359;SDS011;3720;48.274;7.796;2022-09-14T01:50:57;11.57;;;6.60;;
7359;SDS011;3720;48.274;7.796;2022-09-14T01:53:34;10.20;;;6.18;;
7359;SDS011;3720;48.274;7.796;2022-09-14T01:56:11;9.27;;;6.05;;
7359;SDS011;3720;48.274;7.796;2022-09-14T01:58:50;8.02;;;5.95;;
7359;SDS011;3720;48.274;7.796;2022-09-14T02:01:29;8.40;;;5.75;;
7359;SDS011;3720;48.274;7.796;2022-09-14T02:04:05;7.03;;;6.10;;
7359;SDS011;3720;48.274;7.796;2022-09-14T02:06:41;9.73;;;5.60;;
7359;SDS011;3720;48.274;7.796;2022-09-14T02:09:16;9.02;;;5.20;;
7359;SDS011;3720;48.274;7.796;2022-09-14T02:11:50;9.23;;;4.80;;
7359;SDS011;3720;48.274;7.796;2022-09-14T02:14:25;11.23;;;5.38;;
7359;SDS011;3720;48.274;7.796;2022-09-14T02:16:57;6.15;;;4.88;;
7359;SDS011;3720;48.274;7.796;2022-09-14T02:19:31;8.05;;;5.72;;
7359;SDS011;3720;48.274;7.796;2022-09-14T02:22:07;7.80;;;4.80;;
7359;SDS011;3720;48.274;7.796;2022-09-14T02:24:39;11.32;;;6.10;;
7359;SDS011;3720;48.274;7.796;2022-09-14T02:27:12;7.75;;;5.40;;
7359;SDS011;3720;48.274;7.796;2022-09-14T02:29:45;8.57;;;5.60;;
7359;SDS011;3720;48.274;7.796;2022-09-14T02:32:20;5.82;;;5.15;;
7359;SDS011;3720;48.274;7.796;2022-09-14T02:35:00;8.73;;;6.82;;
7359;SDS011;3720;48.274;7.796;2022-09-14T02:37:42;8.85;;;6.05;;
7359;SDS011;3720;48.274;7.796;2022-09-14T02:40:22;8.10;;;6.05;;
7359;SDS011;3720;48.274;7.796;2022-09-14T02:43:05;9.65;;;6.13;;
7359;SDS011;3720;48.274;7.796;2022-09-14T02:45:55;9.73;;;6.15;;
7359;SDS011;3720;48.274;7.796;2022-09-14T02:48:36;11.85;;;6.05;;
7359;SDS011;3720;48.274;7.796;2022-09-14T02:51:16;10.98;;;6.35;;
7359;SDS011;3720;48.274;7.796;2022-09-14T02:54:00;9.70;;;6.65;;
7359;SDS011;3720;48.274;7.796;2022-09-14T02:56:37;10.95;;;6.78;;
7359;SDS011;3720;48.274;7.796;2022-09-14T02:59:09;8.95;;;6.20;;
7359;SDS011;3720;48.274;7.796;2022-09-14T03:01:42;8.57;;;6.15;;
7359;SDS011;3720;48.274;7.796;2022-09-14T03:04:14;9.85;;;6.47;;
7359;SDS011;3720;48.274;7.796;2022-09-14T03:06:46;7.43;;;5.90;;
7359;SDS011;3720;48.274;7.796;2022-09-14T03:09:18;11.80;;;6.50;;
7359;SDS011;3720;48.274;7.796;2022-09-14T03:11:50;11.32;;;6.63;;
7359;SDS011;3720;48.274;7.796;2022-09-14T03:14:22;7.75;;;6.32;;
7359;SDS011;3720;48.274;7.796;2022-09-14T03:16:55;8.55;;;7.15;;
7359;SDS011;3720;48.274;7.796;2022-09-14T03:19:27;12.27;;;7.25;;
7359;SDS011;3720;48.274;7.796;2022-09-14T03:21:59;9.63;;;7.53;;
7359;SDS011;3720;48.274;7.796;2022-09-14T03:24:31;9.45;;;6.32;;
7359;SDS011;3720;48.274;7.796;2022-09-14T03:27:03;10.77;;;8.25;;
7359;SDS011;3720;48.274;7.796;2022-09-14T03:29:35;8.93;;;7.82;;
7359;SDS011;3720;48.274;7.796;2022-09-14T03:32:08;10.30;;;7.70;;
7359;SDS011;3720;48.274;7.796;2022-09-14T03:34:41;11.77;;;6.75;;
7359;SDS011;3720;48.274;7.796;2022-09-14T03:37:13;8.32;;;6.35;;
7359;SDS011;3720;48.274;7.796;2022-09-14T03:39:45;8.40;;;5.70;;
7359;SDS011;3720;48.274;7.796;2022-09-14T03:42:17;10.35;;;5.70;;
7359;SDS011;3720;48.274;7.796;2022-09-14T03:44:49;7.55;;;5.38;;
7359;SDS011;3720;48.274;7.796;2022-09-14T03:47:22;9.20;;;5.75;;
7359;SDS011;3720;48.274;7.796;2022-09-14T03:49:55;10.30;;;6.00;;
7359;SDS011;3720;48.274;7.796;2022-09-14T03:52:27;10.93;;;6.03;;
7359;SDS011;3720;48.274;7.796;2022-09-14T03:54:59;12.02;;;5.95;;
7359;SDS011;3720;48.274;7.796;2022-09-14T03:57:31;7.90;;;5.70;;
7359;SDS011;3720;48.274;7.796;2022-09-14T04:00:03;9.90;;;5.32;;
7359;SDS011;3720;48.274;7.796;2022-09-14T04:02:38;10.90;;;5.40;;
7359;SDS011;3720;48.274;7.796;2022-09-14T04:05:10;10.38;;;5.60;;
7359;SDS011;3720;48.274;7.796;2022-09-14T04:07:42;8.77;;;4.95;;
7359;SDS011;3720;48.274;7.796;2022-09-14T04:10:14;12.63;;;5.40;;
7359;SDS011;3720;48.274;7.796;2022-09-14T04:12:46;8.90;;;5.07;;
7359;SDS011;3720;48.274;7.796;2022-09-14T04:15:18;7.38;;;5.30;;
7359;SDS011;3720;48.274;7.796;2022-09-14T04:17:51;7.70;;;5.00;;
7359;SDS011;3720;48.274;7.796;2022-09-14T04:20:23;10.82;;;5.00;;
7359;SDS011;3720;48.274;7.796;2022-09-14T04:22:55;9.45;;;5.47;;
7359;SDS011;3720;48.274;7.796;2022-09-14T04:25:27;10.30;;;5.10;;
7359;SDS011;3720;48.274;7.796;2022-09-14T04:27:59;9.95;;;4.63;;
7359;SDS011;3720;48.274;7.796;2022-09-14T04:30:31;8.95;;;4.63;;
7359;SDS011;3720;48.274;7.796;2022-09-14T04:33:04;8.93;;;4.70;;
7359;SDS011;3720;48.274;7.796;2022-09-14T04:35:36;7.97;;;4.30;;
7359;SDS011;3720;48.274;7.796;2022-09-14T04:38:08;8.30;;;3.92;;
7359;SDS011;3720;48.274;7.796;2022-09-14T04:40:40;6.25;;;3.90;;
7359;SDS011;3720;48.274;7.796;2022-09-14T04:43:12;6.82;;;4.15;;
7359;SDS011;3720;48.274;7.796;2022-09-14T04:45:43;6.70;;;3.90;;
7359;SDS011;3720;48.274;7.796;2022-09-14T04:48:17;7.80;;;4.13;;
7359;SDS011;3720;48.274;7.796;2022-09-14T04:50:49;10.85;;;4.00;;
7359;SDS011;3720;48.274;7.796;2022-09-14T04:53:21;7.95;;;3.90;;
7359;SDS011;3720;48.274;7.796;2022-09-14T04:55:57;6.03;;;3.90;;
7359;SDS011;3720;48.274;7.796;2022-09-14T04:58:30;8.35;;;3.70;;
7359;SDS011;3720;48.274;7.796;2022-09-14T05:01:02;6.05;;;3.90;;
7359;SDS011;3720;48.274;7.796;2022-09-14T05:03:37;8.15;;;3.60;;
7359;SDS011;3720;48.274;7.796;2022-09-14T05:06:10;7.68;;;3.75;;
7359;SDS011;3720;48.274;7.796;2022-09-14T05:08:44;6.10;;;3.35;;
7359;SDS011;3720;48.274;7.796;2022-09-14T05:11:18;6.65;;;3.75;;
7359;SDS011;3720;48.274;7.796;2022-09-14T05:13:51;8.00;;;3.60;;
7359;SDS011;3720;48.274;7.796;2022-09-14T05:16:23;8.88;;;3.80;;
7359;SDS011;3720;48.274;7.796;2022-09-14T05:18:59;9.05;;;3.70;;
7359;SDS011;3720;48.274;7.796;2022-09-14T05:21:34;8.00;;;3.67;;
7359;SDS011;3720;48.274;7.796;2022-09-14T05:24:09;6.05;;;3.92;;
7359;SDS011;3720;48.274;7.796;2022-09-14T05:26:44;6.10;;;4.07;;
7359;SDS011;3720;48.274;7.796;2022-09-14T05:29:17;7.63;;;3.55;;
7359;SDS011;3720;48.274;7.796;2022-09-14T05:31:49;10.73;;;4.05;;
7359;SDS011;3720;48.274;7.796;2022-09-14T05:34:23;8.30;;;4.03;;
7359;SDS011;3720;48.274;7.796;2022-09-14T05:36:54;7.65;;;3.78;;
7359;SDS011;3720;48.274;7.796;2022-09-14T05:39:26;8.05;;;3.78;;
7359;SDS011;3720;48.274;7.796;2022-09-14T05:41:58;6.78;;;3.70;;
7359;SDS011;3720;48.274;7.796;2022-09-14T05:44:30;8.48;;;3.92;;
7359;SDS011;3720;48.274;7.796;2022-09-14T05:47:02;7.95;;;3.88;;
7359;SDS011;3720;48.274;7.796;2022-09-14T05:49:35;8.13;;;4.07;;
7359;SDS011;3720;48.274;7.796;2022-09-14T05:52:07;7.90;;;3.88;;
7359;SDS011;3720;48.274;7.796;2022-09-14T05:54:39;10.93;;;4.32;;
7359;SDS011;3720;48.274;7.796;2022-09-14T05:57:11;7.55;;;4.60;;
7359;SDS011;3720;48.274;7.796;2022-09-14T05:59:42;6.53;;;4.32;;
7359;SDS011;3720;48.274;7.796;2022-09-14T06:02:14;12.10;;;4.32;;
7359;SDS011;3720;48.274;7.796;2022-09-14T06:04:48;8.52;;;4.82;;
7359;SDS011;3720;48.274;7.796;2022-09-14T06:07:19;9.65;;;5.00;;
7359;SDS011;3720;48.274;7.796;2022-09-14T06:09:51;6.68;;;4.68;;
7359;SDS011;3720;48.274;7.796;2022-09-14T06:12:23;7.53;;;4.57;;
7359;SDS011;3720;48.274;7.796;2022-09-14T06:14:56;7.75;;;4.72;;
7359;SDS011;3720;48.274;7.796;2022-09-14T06:17:28;9.32;;;5.53;;
7359;SDS011;3720;48.274;7.796;2022-09-14T06:20:03;10.65;;;5.40;;
7359;SDS011;3720;48.274;7.796;2022-09-14T06:22:36;8.55;;;5.10;;
7359;SDS011;3720;48.274;7.796;2022-09-14T06:25:08;10.18;;;5.03;;
7359;SDS011;3720;48.274;7.796;2022-09-14T06:27:40;8.50;;;4.95;;
7359;SDS011;3720;48.274;7.796;2022-09-14T06:30:12;8.32;;;4.75;;
7359;SDS011;3720;48.274;7.796;2022-09-14T06:32:45;6.75;;;4.32;;
7359;SDS011;3720;48.274;7.796;2022-09-14T06:35:18;8.68;;;4.30;;
7359;SDS011;3720;48.274;7.796;2022-09-14T06:37:51;12.20;;;4.90;;
7359;SDS011;3720;48.274;7.796;2022-09-14T06:40:23;8.43;;;4.35;;
7359;SDS011;3720;48.274;7.796;2022-09-14T06:42:56;5.70;;;4.38;;
7359;SDS011;3720;48.274;7.796;2022-09-14T06:45:31;8.50;;;4.00;;
7359;SDS011;3720;48.274;7.796;2022-09-14T06:48:03;4.95;;;3.90;;
7359;SDS011;3720;48.274;7.796;2022-09-14T06:50:36;6.95;;;3.75;;
7359;SDS011;3720;48.274;7.796;2022-09-14T06:53:08;10.00;;;3.67;;
7359;SDS011;3720;48.274;7.796;2022-09-14T06:55:40;5.45;;;3.53;;
7359;SDS011;3720;48.274;7.796;2022-09-14T06:58:13;7.88;;;3.50;;
7359;SDS011;3720;48.274;7.796;2022-09-14T07:00:45;6.25;;;3.70;;
7359;SDS011;3720;48.274;7.796;2022-09-14T07:03:17;7.90;;;3.80;;
7359;SDS011;3720;48.274;7.796;2022-09-14T07:05:50;5.78;;;3.60;;
7359;SDS011;3720;48.274;7.796;2022-09-14T07:08:22;7.50;;;3.78;;
7359;SDS011;3720;48.274;7.796;2022-09-14T07:10:58;6.35;;;3.30;;
7359;SDS011;3720;48.274;7.796;2022-09-14T07:13:31;8.90;;;3.65;;
7359;SDS011;3720;48.274;7.796;2022-09-14T07:16:03;6.20;;;3.40;;
7359;SDS011;3720;48.274;7.796;2022-09-14T07:18:37;7.95;;;3.33;;
7359;SDS011;3720;48.274;7.796;2022-09-14T07:21:11;6.45;;;3.33;;
7359;SDS011;3720;48.274;7.796;2022-09-14T07:23:45;3.92;;;3.20;;
7359;SDS011;3720;48.274;7.796;2022-09-14T07:26:19;6.00;;;3.28;;
7359;SDS011;3720;48.274;7.796;2022-09-14T07:28:53;4.05;;;3.05;;
7359;SDS011;3720;48.274;7.796;2022-09-14T07:31:26;7.85;;;3.30;;
7359;SDS011;3720;48.274;7.796;2022-09-14T07:34:01;7.68;;;2.90;;
7359;SDS011;3720;48.274;7.796;2022-09-14T07:36:36;5.38;;;3.10;;
7359;SDS011;3720;48.274;7.796;2022-09-14T07:39:09;5.57;;;3.30;;
7359;SDS011;3720;48.274;7.796;2022-09-14T07:41:43;3.83;;;3.08;;
7359;SDS011;3720;48.274;7.796;2022-09-14T07:44:16;6.13;;;3.17;;
7359;SDS011;3720;48.274;7.796;2022-09-14T07:46:48;7.10;;;2.97;;
7359;SDS011;3720;48.274;7.796;2022-09-14T07:49:19;6.93;;;3.40;;
7359;SDS011;3720;48.274;7.796;2022-09-14T07:51:53;5.68;;;2.90;;
7359;SDS011;3720;48.274;7.796;2022-09-14T07:54:25;6.63;;;3.15;;
7359;SDS011;3720;48.274;7.796;2022-09-14T07:56:57;7.03;;;3.13;;
7359;SDS011;3720;48.274;7.796;2022-09-14T07:59:29;4.50;;;2.90;;
7359;SDS011;3720;48.274;7.796;2022-09-14T08:02:01;4.15;;;2.78;;
7359;SDS011;3720;48.274;7.796;2022-09-14T08:04:36;5.25;;;2.78;;
7359;SDS011;3720;48.274;7.796;2022-09-14T08:07:10;8.20;;;3.03;;
7359;SDS011;3720;48.274;7.796;2022-09-14T08:09:42;8.82;;;2.92;;
7359;SDS011;3720;48.274;7.796;2022-09-14T08:12:14;6.38;;;2.95;;
7359;SDS011;3720;48.274;7.796;2022-09-14T08:14:46;6.35;;;3.00;;
7359;SDS011;3720;48.274;7.796;2022-09-14T08:17:18;6.00;;;2.80;;
7359;SDS011;3720;48.274;7.796;2022-09-14T08:19:53;3.75;;;2.63;;
7359;SDS011;3720;48.274;7.796;2022-09-14T08:22:26;6.55;;;2.80;;
7359;SDS011;3720;48.274;7.796;2022-09-14T08:24:58;5.65;;;2.97;;
7359;SDS011;3720;48.274;7.796;2022-09-14T08:27:30;3.83;;;3.00;;
7359;SDS011;3720;48.274;7.796;2022-09-14T08:30:02;7.88;;;2.95;;
7359;SDS011;3720;48.274;7.796;2022-09-14T08:32:35;5.68;;;2.63;;
7359;SDS011;3720;48.274;7.796;2022-09-14T08:35:07;7.50;;;2.95;;
7359;SDS011;3720;48.274;7.796;2022-09-14T08:37:40;7.22;;;2.85;;
7359;SDS011;3720;48.274;7.796;2022-09-14T08:40:12;5.30;;;3.20;;
7359;SDS011;3720;48.274;7.796;2022-09-14T08:42:46;9.77;;;3.08;;
7359;SDS011;3720;48.274;7.796;2022-09-14T08:45:19;4.65;;;2.70;;
7359;SDS011;3720;48.274;7.796;2022-09-14T08:47:53;6.38;;;2.92;;
7359;SDS011;3720;48.274;7.796;2022-09-14T08:50:27;5.88;;;2.75;;
7359;SDS011;3720;48.274;7.796;2022-09-14T08:53:02;6.55;;;2.53;;
7359;SDS011;3720;48.274;7.796;2022-09-14T08:55:36;9.80;;;2.58;;
7359;SDS011;3720;48.274;7.796;2022-09-14T08:58:15;8.18;;;2.55;;
7359;SDS011;3720;48.274;7.796;2022-09-14T09:00:56;9.10;;;2.70;;
7359;SDS011;3720;48.274;7.796;2022-09-14T09:03:49;4.72;;;2.55;;
7359;SDS011;3720;48.274;7.796;2022-09-14T09:06:31;5.47;;;2.55;;
7359;SDS011;3720;48.274;7.796;2022-09-14T09:09:12;7.95;;;2.60;;
7359;SDS011;3720;48.274;7.796;2022-09-14T09:11:52;5.20;;;2.65;;
7359;SDS011;3720;48.274;7.796;2022-09-14T09:14:28;7.25;;;2.53;;
7359;SDS011;3720;48.274;7.796;2022-09-14T09:17:04;7.80;;;2.40;;
7359;SDS011;3720;48.274;7.796;2022-09-14T09:19:47;4.88;;;2.55;;
7359;SDS011;3720;48.274;7.796;2022-09-14T09:22:29;6.40;;;2.55;;
7359;SDS011;3720;48.274;7.796;2022-09-14T09:25:08;6.10;;;2.67;;
7359;SDS011;3720;48.274;7.796;2022-09-14T09:27:47;6.47;;;2.70;;
7359;SDS011;3720;48.274;7.796;2022-09-14T09:30:19;5.07;;;2.70;;
7359;SDS011;3720;48.274;7.796;2022-09-14T09:32:51;4.57;;;2.65;;
7359;SDS011;3720;48.274;7.796;2022-09-14T09:35:23;5.55;;;2.67;;
7359;SDS011;3720;48.274;7.796;2022-09-14T09:37:55;5.40;;;2.70;;
7359;SDS011;3720;48.274;7.796;2022-09-14T09:40:31;7.47;;;2.53;;
7359;SDS011;3720;48.274;7.796;2022-09-14T09:43:06;6.40;;;2.80;;
7359;SDS011;3720;48.274;7.796;2022-09-14T09:45:47;5.63;;;2.70;;
7359;SDS011;3720;48.274;7.796;2022-09-14T09:48:26;6.43;;;2.60;;
7359;SDS011;3720;48.274;7.796;2022-09-14T09:51:01;6.03;;;2.60;;
7359;SDS011;3720;48.274;7.796;2022-09-14T09:53:37;4.60;;;2.35;;
7359;SDS011;3720;48.274;7.796;2022-09-14T09:56:20;4.60;;;2.50;;
7359;SDS011;3720;48.274;7.796;2022-09-14T09:58:54;6.03;;;2.53;;
7359;SDS011;3720;48.274;7.796;2022-09-14T10:01:27;7.57;;;2.80;;
7359;SDS011;3720;48.274;7.796;2022-09-14T10:04:14;6.68;;;2.40;;
7359;SDS011;3720;48.274;7.796;2022-09-14T10:06:49;7.85;;;2.63;;
7359;SDS011;3720;48.274;7.796;2022-09-14T10:09:22;7.53;;;2.65;;
7359;SDS011;3720;48.274;7.796;2022-09-14T10:11:59;4.53;;;2.40;;
7359;SDS011;3720;48.274;7.796;2022-09-14T10:14:32;9.55;;;2.60;;
7359;SDS011;3720;48.274;7.796;2022-09-14T10:17:06;7.72;;;2.60;;
7359;SDS011;3720;48.274;7.796;2022-09-14T10:19:48;8.10;;;2.30;;
7359;SDS011;3720;48.274;7.796;2022-09-14T10:22:24;7.35;;;2.50;;
7359;SDS011;3720;48.274;7.796;2022-09-14T10:24:59;9.10;;;2.47;;
7359;SDS011;3720;48.274;7.796;2022-09-14T10:27:35;7.53;;;2.47;;
7359;SDS011;3720;48.274;7.796;2022-09-14T10:30:13;8.38;;;2.60;;
7359;SDS011;3720;48.274;7.796;2022-09-14T10:32:51;3.67;;;2.40;;
7359;SDS011;3720;48.274;7.796;2022-09-14T10:35:31;5.20;;;2.55;;
7359;SDS011;3720;48.274;7.796;2022-09-14T10:38:22;4.60;;;2.28;;
7359;SDS011;3720;48.274;7.796;2022-09-14T10:41:04;8.10;;;2.55;;
7359;SDS011;3720;48.274;7.796;2022-09-14T10:43:46;6.97;;;2.65;;
7359;SDS011;3720;48.274;7.796;2022-09-14T10:46:35;5.03;;;2.20;;
7359;SDS011;3720;48.274;7.796;2022-09-14T10:49:16;7.50;;;2.30;;
7359;SDS011;3720;48.274;7.796;2022-09-14T10:51:59;5.65;;;2.42;;
7359;SDS011;3720;48.274;7.796;2022-09-14T10:54:49;6.25;;;2.30;;
7359;SDS011;3720;48.274;7.796;2022-09-14T10:57:38;4.18;;;1.90;;
7359;SDS011;3720;48.274;7.796;2022-09-14T11:00:20;14.23;;;2.33;;
7359;SDS011;3720;48.274;7.796;2022-09-14T11:03:05;9.48;;;2.20;;
7359;SDS011;3720;48.274;7.796;2022-09-14T11:05:50;8.27;;;2.33;;
7359;SDS011;3720;48.274;7.796;2022-09-14T11:08:29;8.25;;;2.22;;
7359;SDS011;3720;48.274;7.796;2022-09-14T11:11:10;4.45;;;2.30;;
7359;SDS011;3720;48.274;7.796;2022-09-14T11:14:08;5.10;;;2.50;;
7359;SDS011;3720;48.274;7.796;2022-09-14T11:16:58;11.55;;;3.20;;
7359;SDS011;3720;48.274;7.796;2022-09-14T11:19:40;6.68;;;2.72;;
7359;SDS011;3720;48.274;7.796;2022-09-14T11:22:19;8.25;;;2.85;;
7359;SDS011;3720;48.274;7.796;2022-09-14T11:25:00;6.25;;;2.75;;
7359;SDS011;3720;48.274;7.796;2022-09-14T11:27:36;8.77;;;3.13;;
7359;SDS011;3720;48.274;7.796;2022-09-14T11:30:13;12.48;;;3.20;;
7359;SDS011;3720;48.274;7.796;2022-09-14T11:32:50;7.22;;;3.05;;
7359;SDS011;3720;48.274;7.796;2022-09-14T11:35:26;5.82;;;2.53;;
7359;SDS011;3720;48.274;7.796;2022-09-14T11:38:02;7.30;;;2.58;;
7359;SDS011;3720;48.274;7.796;2022-09-14T11:40:42;4.70;;;2.50;;
7359;SDS011;3720;48.274;7.796;2022-09-14T11:43:19;4.75;;;2.30;;
7359;SDS011;3720;48.274;7.796;2022-09-14T11:45:56;7.03;;;1.98;;
7359;SDS011;3720;48.274;7.796;2022-09-14T11:48:39;4.63;;;2.00;;
7359;SDS011;3720;48.274;7.796;2022-09-14T11:51:16;5.75;;;2.17;;
7359;SDS011;3720;48.274;7.796;2022-09-14T11:53:54;8.65;;;2.35;;
7359;SDS011;3720;48.274;7.796;2022-09-14T11:56:26;7.28;;;2.17;;
7359;SDS011;3720;48.274;7.796;2022-09-14T11:59:02;6.70;;;2.22;;
7359;SDS011;3720;48.274;7.796;2022-09-14T12:01:37;10.02;;;2.30;;
7359;SDS011;3720;48.274;7.796;2022-09-14T12:04:15;9.30;;;1.90;;
7359;SDS011;3720;48.274;7.796;2022-09-14T12:06:49;9.68;;;1.60;;
7359;SDS011;3720;48.274;7.796;2022-09-14T12:12:29;7.40;;;1.35;;
7359;SDS011;3720;48.274;7.796;2022-09-14T12:15:15;3.00;;;1.33;;
7359;SDS011;3720;48.274;7.796;2022-09-14T12:17:52;4.55;;;1.25;;
7359;SDS011;3720;48.274;7.796;2022-09-14T12:20:47;6.40;;;1.30;;
7359;SDS011;3720;48.274;7.796;2022-09-14T12:23:23;4.78;;;1.40;;
7359;SDS011;3720;48.274;7.796;2022-09-14T12:26:04;2.40;;;1.17;;
7359;SDS011;3720;48.274;7.796;2022-09-14T12:28:44;3.38;;;1.35;;
7359;SDS011;3720;48.274;7.796;2022-09-14T12:31:38;3.10;;;1.17;;
7359;SDS011;3720;48.274;7.796;2022-09-14T12:34:31;4.25;;;1.30;;
7359;SDS011;3720;48.274;7.796;2022-09-14T12:37:25;6.47;;;1.50;;
7359;SDS011;3720;48.274;7.796;2022-09-14T12:46:32;4.03;;;1.48;;
7359;SDS011;3720;48.274;7.796;2022-09-14T12:55:07;1.63;;;1.10;;
7359;SDS011;3720;48.274;7.796;2022-09-14T13:00:26;2.67;;;1.10;;
7359;SDS011;3720;48.274;7.796;2022-09-14T13:03:17;2.67;;;1.10;;
7359;SDS011;3720;48.274;7.796;2022-09-14T13:06:00;5.53;;;1.30;;
7359;SDS011;3720;48.274;7.796;2022-09-14T13:08:34;3.55;;;1.20;;
7359;SDS011;3720;48.274;7.796;2022-09-14T13:11:06;3.05;;;1.13;;
7359;SDS011;3720;48.274;7.796;2022-09-14T13:13:39;3.03;;;1.10;;
7359;SDS011;3720;48.274;7.796;2022-09-14T13:16:14;4.43;;;1.35;;
7359;SDS011;3720;48.274;7.796;2022-09-14T13:21:29;4.97;;;1.55;;
7359;SDS011;3720;48.274;7.796;2022-09-14T13:24:17;4.25;;;1.70;;
7359;SDS011;3720;48.274;7.796;2022-09-14T13:26:54;2.10;;;1.40;;
7359;SDS011;3720;48.274;7.796;2022-09-14T13:29:28;3.20;;;1.50;;
7359;SDS011;3720;48.274;7.796;2022-09-14T13:32:01;2.75;;;1.42;;
7359;SDS011;3720;48.274;7.796;2022-09-14T13:34:34;3.22;;;1.42;;
7359;SDS011;3720;48.274;7.796;2022-09-14T13:37:11;2.47;;;1.35;;
7359;SDS011;3720;48.274;7.796;2022-09-14T13:39:48;2.00;;;1.20;;
7359;SDS011;3720;48.274;7.796;2022-09-14T13:42:21;4.63;;;1.30;;
7359;SDS011;3720;48.274;7.796;2022-09-14T13:44:55;4.35;;;1.40;;
7359;SDS011;3720;48.274;7.796;2022-09-14T13:47:27;2.90;;;1.67;;
7359;SDS011;3720;48.274;7.796;2022-09-14T13:49:59;5.28;;;1.52;;
7359;SDS011;3720;48.274;7.796;2022-09-14T13:52:33;2.83;;;1.30;;
7359;SDS011;3720;48.274;7.796;2022-09-14T13:55:11;4.28;;;1.30;;
7359;SDS011;3720;48.274;7.796;2022-09-14T13:58:03;2.90;;;1.23;;
7359;SDS011;3720;48.274;7.796;2022-09-14T14:00:46;2.92;;;1.38;;
7359;SDS011;3720;48.274;7.796;2022-09-14T14:03:30;3.20;;;1.30;;
7359;SDS011;3720;48.274;7.796;2022-09-14T14:06:15;2.20;;;1.10;;
7359;SDS011;3720;48.274;7.796;2022-09-14T14:08:51;2.83;;;1.30;;
7359;SDS011;3720;48.274;7.796;2022-09-14T14:11:33;4.78;;;1.55;;
7359;SDS011;3720;48.274;7.796;2022-09-14T14:14:09;3.13;;;1.40;;
7359;SDS011;3720;48.274;7.796;2022-09-14T14:23:02;2.58;;;1.20;;
7359;SDS011;3720;48.274;7.796;2022-09-14T14:25:49;2.35;;;1.17;;
7359;SDS011;3720;48.274;7.796;2022-09-14T14:28:25;2.00;;;0.90;;
7359;SDS011;3720;48.274;7.796;2022-09-14T14:30:59;1.70;;;1.00;;
7359;SDS011;3720;48.274;7.796;2022-09-14T14:33:34;2.33;;;0.70;;
7359;SDS011;3720;48.274;7.796;2022-09-14T14:36:14;1.70;;;0.60;;
7359;SDS011;3720;48.274;7.796;2022-09-14T14:38:47;2.20;;;0.70;;
7359;SDS011;3720;48.274;7.796;2022-09-14T14:41:19;3.08;;;0.80;;
7359;SDS011;3720;48.274;7.796;2022-09-14T14:43:53;4.50;;;0.75;;
7359;SDS011;3720;48.274;7.796;2022-09-14T14:46:25;2.30;;;0.80;;
7359;SDS011;3720;48.274;7.796;2022-09-14T14:48:56;3.15;;;0.90;;
7359;SDS011;3720;48.274;7.796;2022-09-14T14:51:28;0.63;;;0.60;;
7359;SDS011;3720;48.274;7.796;2022-09-14T14:54:00;2.15;;;0.82;;
7359;SDS011;3720;48.274;7.796;2022-09-14T14:56:32;1.65;;;0.93;;
7359;SDS011;3720;48.274;7.796;2022-09-14T14:59:15;2.45;;;1.00;;
7359;SDS011;3720;48.274;7.796;2022-09-14T15:01:55;1.77;;;1.00;;
7359;SDS011;3720;48.274;7.796;2022-09-14T15:04:27;1.83;;;0.95;;
7359;SDS011;3720;48.274;7.796;2022-09-14T15:06:59;4.00;;;1.23;;
7359;SDS011;3720;48.274;7.796;2022-09-14T15:09:31;2.63;;;1.20;;
7359;SDS011;3720;48.274;7.796;2022-09-14T15:12:03;2.10;;;1.33;;
7359;SDS011;3720;48.274;7.796;2022-09-14T15:14:37;3.20;;;1.20;;
7359;SDS011;3720;48.274;7.796;2022-09-14T15:17:09;4.03;;;1.40;;
7359;SDS011;3720;48.274;7.796;2022-09-14T15:19:41;5.00;;;1.50;;
7359;SDS011;3720;48.274;7.796;2022-09-14T15:22:13;2.85;;;1.40;;
7359;SDS011;3720;48.274;7.796;2022-09-14T15:24:45;2.58;;;1.48;;
7359;SDS011;3720;48.274;7.796;2022-09-14T15:27:17;2.50;;;1.40;;
7359;SDS011;3720;48.274;7.796;2022-09-14T15:29:50;2.15;;;1.60;;
7359;SDS011;3720;48.274;7.796;2022-09-14T15:32:22;2.92;;;2.10;;
7359;SDS011;3720;48.274;7.796;2022-09-14T15:34:54;6.95;;;3.95;;
7359;SDS011;3720;48.274;7.796;2022-09-14T15:37:26;6.38;;;4.18;;
7359;SDS011;3720;48.274;7.796;2022-09-14T15:39:58;7.32;;;4.32;;
7359;SDS011;3720;48.274;7.796;2022-09-14T15:42:30;7.90;;;4.50;;
7359;SDS011;3720;48.274;7.796;2022-09-14T15:45:04;7.35;;;4.18;;
7359;SDS011;3720;48.274;7.796;2022-09-14T15:47:38;5.97;;;3.63;;
7359;SDS011;3720;48.274;7.796;2022-09-14T15:50:13;7.30;;;3.03;;
7359;SDS011;3720;48.274;7.796;2022-09-14T15:52:45;5.50;;;2.72;;
7359;SDS011;3720;48.274;7.796;2022-09-14T15:55:17;6.25;;;2.20;;
7359;SDS011;3720;48.274;7.796;2022-09-14T15:57:49;2.75;;;1.73;;
7359;SDS011;3720;48.274;7.796;2022-09-14T16:00:22;2.33;;;1.70;;
7359;SDS011;3720;48.274;7.796;2022-09-14T16:02:54;2.80;;;1.55;;
7359;SDS011;3720;48.274;7.796;2022-09-14T16:05:26;3.67;;;1.40;;
7359;SDS011;3720;48.274;7.796;2022-09-14T16:07:58;4.18;;;1.20;;
7359;SDS011;3720;48.274;7.796;2022-09-14T16:10:31;1.60;;;1.10;;
7359;SDS011;3720;48.274;7.796;2022-09-14T16:13:03;3.10;;;1.00;;
7359;SDS011;3720;48.274;7.796;2022-09-14T16:15:36;3.05;;;1.13;;
7359;SDS011;3720;48.274;7.796;2022-09-14T16:18:07;1.65;;;1.00;;
7359;SDS011;3720;48.274;7.796;2022-09-14T16:20:40;4.28;;;1.10;;
7359;SDS011;3720;48.274;7.796;2022-09-14T16:23:12;3.38;;;1.02;;
7359;SDS011;3720;48.274;7.796;2022-09-14T16:25:43;2.40;;;1.10;;
7359;SDS011;3720;48.274;7.796;2022-09-14T16:28:15;3.20;;;1.00;;
7359;SDS011;3720;48.274;7.796;2022-09-14T16:30:49;3.67;;;1.00;;